Time;durP1;ratioP1;P1;durP2;ratioP2;P2;SDS_P1;SDS_P2;PMS_P1;PMS_P2;Temp;Humidity;BMP_temperature;BMP_pressure;BME280_temperature;BME280_humidity;BME280_pressure;Samples;Min_cycle;Max_cycle;Signal;HPM_P1;HPM_P2
2023/10/01 00:00:28;;;;;;;;;;;;;;;-145.06;100.00;60892.56;4916861;28;19920;-91
2023/10/01 00:03:07;;;;;;;;;;;;;;;-145.06;100.00;60892.56;4912391;28;19916;-90
2023/10/01 00:05:45;;;;;;;;;;;;;;;-145.06;100.00;60892.56;4918859;28;19916;-90
2023/10/01 00:08:25;;;;;;;;;;;;;;;-145.06;100.00;60892.56;4915292;28;19916;-92
2023/10/01 00:11:04;;;;;;;;;;;;;;;-145.06;100.00;60892.56;4918571;28;19916;-91
2023/10/01 00:13:43;;;;;;;;;;;;;;;-145.06;100.00;60892.56;4920562;28;19946;-91
2023/10/01 00:16:23;;;;;;;;;;;;;;;-145.06;100.00;60892.56;4923075;28;20334;-90
2023/10/01 00:19:05;;;;;;;;;;;;;;;-145.06;100.00;60892.56;4926672;28;20274;-92
2023/10/01 00:21:44;;;;;;;;;;;;;;;-145.06;100.00;60892.56;4925196;28;19919;-90
2023/10/01 00:24:23;;;;;;;;;;;;;;;-145.06;100.00;60892.56;4918280;28;19959;-91
2023/10/01 00:27:02;;;;;;;;;;;;;;;-145.06;100.00;60892.56;4904485;28;19916;-91
2023/10/01 00:29:41;;;;;;;;;;;;;;;-145.06;100.00;60892.56;4916090;28;20385;-90
2023/10/01 00:32:21;;;;;;;;;;;;;;;-145.06;100.00;60892.56;4918441;28;19925;-91
2023/10/01 00:35:03;;;;;;;;;;;;;;;-145.06;100.00;60892.56;4919282;28;19916;-91
2023/10/01 00:37:42;;;;;;;;;;;;;;;-145.06;100.00;60892.56;4920206;28;20290;-90
2023/10/01 00:40:21;;;;;;;;;;;;;;;-145.06;100.00;60892.56;4911587;28;19917;-91
2023/10/01 00:43:04;;;;;;;;;;;;;;;-145.06;100.00;60892.56;4919682;28;19912;-90
2023/10/01 00:45:45;;;;;;;;;;;;;;;-145.06;100.00;60892.56;4900878;28;19913;-87
2023/10/01 00:48:25;;;;;;;;;;;;;;;-145.06;100.00;60892.56;4926314;28;19920;-92
2023/10/01 00:51:04;;;;;;;;;;;;;;;-145.06;100.00;60892.56;4918498;28;19916;-90
2023/10/01 00:53:45;;;;;;;;;;;;;;;-145.06;100.00;60892.56;4912793;28;19993;-88
2023/10/01 00:56:25;;;;;;;;;;;;;;;-145.06;100.00;60892.56;4912500;28;19923;-90
2023/10/01 00:59:04;;;;;;;;;;;;;;;-145.06;100.00;60892.56;4918393;28;19916;-89
2023/10/01 01:01:43;;;;;;;;;;;;;;;-145.06;100.00;60892.56;4913627;28;19924;-90
2023/10/01 01:04:22;;;;;;;;;;;;;;;-145.06;100.00;60892.56;4915891;28;19917;-90
2023/10/01 01:07:11;;;;;;;;;;;;;;;-145.06;100.00;60892.56;4930284;28;19916;-89
2023/10/01 01:09:50;;;;;;;;;;;;;;;-145.06;100.00;60892.56;4916160;28;20605;-90
2023/10/01 01:12:29;;;;;;;;;;;;;;;-145.06;100.00;60892.56;4922962;28;19920;-91
2023/10/01 01:15:12;;;;;;;;;;;;;;;-145.06;100.00;60892.56;4919206;28;19916;-92
2023/10/01 01:17:53;;;;;;;;;;;;;;;-145.06;100.00;60892.56;4913981;28;20023;-90
2023/10/01 01:20:36;;;;;;;;;;;;;;;-145.06;100.00;60892.56;4917023;28;19943;-90
2023/10/01 01:23:21;;;;;;;;;;;;;;;-145.06;100.00;60892.56;4918339;28;19913;-89
2023/10/01 01:26:00;;;;;;;;;;;;;;;13.28;100.00;60892.56;4915709;28;19917;-90
2023/10/01 01:28:41;;;;;;;;;;;;;;;13.27;100.00;60892.56;4919001;28;19919;-91
2023/10/01 01:31:26;;;;;;;;;;;;;;;13.24;100.00;60892.56;4855864;28;1841788;-91
2023/10/01 01:34:12;;;;;;;;;;;;;;;13.22;100.00;60892.56;4922704;28;19959;-90
2023/10/01 01:36:51;;;;;;;;;;;;;;;13.19;100.00;60892.56;4923314;28;19916;-91
2023/10/01 01:39:42;;;;;;;;;;;;;;;13.17;100.00;60892.56;4910868;28;19916;-91
2023/10/01 01:42:21;;;;;;;;;;;;;;;13.15;100.00;60892.56;4919720;28;19916;-90
2023/10/01 01:45:18;;;;;;;;;;;;;;;13.12;100.00;60892.56;4910188;28;19920;-91
2023/10/01 01:47:57;;;;;;;;;;;;;;;13.11;100.00;60892.56;4914204;28;19976;-91
2023/10/01 01:50:36;;;;;;;;;;;;;;;13.09;100.00;60892.56;4915851;28;19995;-90
2023/10/01 01:53:18;;;;;;;;;;;;;;;13.07;100.00;60892.56;4914930;28;19920;-91
2023/10/01 01:55:59;;;;;;;;;;;;;;;13.05;100.00;60892.56;4918736;28;19916;-90
2023/10/01 01:58:39;;;;;;;;;;;;;;;13.03;100.00;60892.56;4912417;28;19912;-90
2023/10/01 02:01:23;;;;;;;;;;;;;;;13.00;100.00;60892.56;4909472;28;19916;-89
2023/10/01 02:04:05;;;;;;;;;;;;;;;12.98;100.00;60892.56;4909516;28;20405;-89
2023/10/01 02:06:45;;;;;;;;;;;;;;;12.97;100.00;60892.56;4916806;28;19972;-89
2023/10/01 02:09:24;;;;;;;;;;;;;;;-145.06;100.00;60892.56;4925349;28;19916;-90
2023/10/01 02:12:23;;;;;;;;;;;;;;;-145.06;100.00;60892.56;4925370;28;20634;-90
2023/10/01 02:15:06;;;;;;;;;;;;;;;-145.06;100.00;60892.56;4918628;28;19943;-91
2023/10/01 02:17:45;;;;;;;;;;;;;;;-145.06;100.00;60892.56;4909957;28;19956;-91
2023/10/01 02:20:27;;;;;;;;;;;;;;;-145.06;100.00;60892.56;4920493;28;19948;-90
2023/10/01 02:23:12;;;;;;;;;;;;;;;-145.06;100.00;60892.56;4915927;28;20378;-90
2023/10/01 02:25:57;;;;;;;;;;;;;;;-145.06;100.00;60892.56;4942085;28;20361;-89
2023/10/01 02:28:36;;;;;;;;;;;;;;;-145.06;100.00;60892.56;4912240;28;19948;-91
2023/10/01 02:31:15;;;;;;;;;;;;;;;-145.06;100.00;60892.56;4918732;28;20378;-91
2023/10/01 02:33:55;;;;;;;;;;;;;;;-145.06;100.00;60892.56;4914403;28;19920;-89
2023/10/01 02:36:42;;;;;;;;;;;;;;;-145.06;100.00;60892.56;4918338;28;19916;-89
2023/10/01 02:39:27;;;;;;;;;;;;;;;-145.06;100.00;60892.56;4911225;28;20263;-90
2023/10/01 02:42:22;;;;;;;;;;;;;;;-145.06;100.00;60892.56;4924893;28;19912;-91
2023/10/01 02:45:20;;;;;;;;;;;;;;;-145.06;100.00;60892.56;4912534;28;19920;-89
2023/10/01 02:48:16;;;;;;;;;;;;;;;-145.06;100.00;60892.56;4931794;28;19915;-88
2023/10/01 02:51:14;;;;;;;;;;;;;;;-145.06;100.00;60892.56;4923416;28;19912;-88
2023/10/01 03:00:11;;;;;;;;;;;;;;;-145.06;100.00;60892.56;4915969;28;20003;-90
2023/10/01 03:02:51;;;;;;;;;;;;;;;-145.06;100.00;60892.56;4916920;28;19916;-89
2023/10/01 03:05:30;;;;;;;;;;;;;;;-145.06;100.00;60892.56;4911664;28;20255;-89
2023/10/01 03:08:40;;;;;;;;;;;;;;;-145.06;100.00;60892.56;4917680;28;19915;-90
2023/10/01 03:11:11;;;;;;;;;;;;;;;-145.06;100.00;60892.56;4924620;28;19920;-91
2023/10/01 03:14:01;;;;;;;;;;;;;;;-145.06;100.00;60892.56;4921264;28;19951;-91
2023/10/01 03:16:44;;;;;;;;;;;;;;;-145.06;100.00;60892.56;4926994;28;19923;-90
2023/10/01 03:19:26;;;;;;;;;;;;;;;-145.06;100.00;60892.56;4919402;28;19916;-91
2023/10/01 03:24:45;;;;;;;;;;;;;;;-145.06;100.00;60892.56;4925171;28;19916;-91
2023/10/01 03:27:27;;;;;;;;;;;;;;;-145.06;100.00;60892.56;4929425;28;19919;-91
2023/10/01 03:30:23;;;;;;;;;;;;;;;-145.06;100.00;60892.56;4920487;28;20338;-90
2023/10/01 03:33:07;;;;;;;;;;;;;;;-145.06;100.00;60892.56;4917098;28;20278;-89
2023/10/01 03:35:47;;;;;;;;;;;;;;;-145.06;100.00;60892.56;4923028;28;19912;-91
2023/10/01 03:38:27;;;;;;;;;;;;;;;-145.06;100.00;60892.56;4919454;28;20425;-90
2023/10/01 03:41:08;;;;;;;;;;;;;;;-145.06;100.00;60892.56;4929553;28;19920;-90
2023/10/01 03:43:50;;;;;;;;;;;;;;;-145.06;100.00;60892.56;4936048;28;20309;-89
2023/10/01 03:46:31;;;;;;;;;;;;;;;-145.06;100.00;60892.56;4918893;28;19912;-89
2023/10/01 03:52:09;;;;;;;;;;;;;;;-145.06;100.00;60892.56;4917577;28;20034;-91
2023/10/01 03:57:52;;;;;;;;;;;;;;;-145.06;100.00;60892.56;4916441;28;19912;-89
2023/10/01 04:03:21;;;;;;;;;;;;;;;-145.06;100.00;60892.56;4929382;28;19958;-91
2023/10/01 04:05:59;;;;;;;;;;;;;;;-145.06;100.00;60892.56;4920766;28;20094;-89
2023/10/01 04:08:39;;;;;;;;;;;;;;;-145.06;100.00;60892.56;4920795;28;20002;-89
2023/10/01 04:11:18;;;;;;;;;;;;;;;-145.06;100.00;60892.56;4929374;28;19947;-91
2023/10/01 04:14:08;;;;;;;;;;;;;;;-145.06;100.00;60892.56;4920600;28;20358;-89
2023/10/01 04:16:56;;;;;;;;;;;;;;;-145.06;100.00;60892.56;4911992;28;19916;-91
2023/10/01 04:19:40;;;;;;;;;;;;;;;-145.06;100.00;60892.56;4917111;28;20471;-89
2023/10/01 04:22:21;;;;;;;;;;;;;;;-145.06;100.00;60892.56;4912580;28;19920;-90
2023/10/01 04:25:00;;;;;;;;;;;;;;;-145.06;100.00;60892.56;4931491;28;20350;-90
2023/10/01 04:27:45;;;;;;;;;;;;;;;-145.06;100.00;60892.56;4921911;28;19920;-89
2023/10/01 04:30:26;;;;;;;;;;;;;;;-145.06;100.00;60892.56;4925767;28;19913;-88
2023/10/01 04:33:17;;;;;;;;;;;;;;;-145.06;100.00;60892.56;4920100;28;19928;-88
2023/10/01 04:35:58;;;;;;;;;;;;;;;-145.06;100.00;60892.56;4921744;28;19916;-90
2023/10/01 04:38:38;;;;;;;;;;;;;;;-145.06;100.00;60892.56;4927705;28;19912;-89
2023/10/01 04:41:18;;;;;;;;;;;;;;;-145.06;100.00;60892.56;4924175;28;20369;-91
2023/10/01 04:44:07;;;;;;;;;;;;;;;-145.06;100.00;60892.56;4916698;28;19920;-89
2023/10/01 04:46:46;;;;;;;;;;;;;;;-145.06;100.00;60892.56;4923649;28;19939;-89
2023/10/01 04:49:31;;;;;;;;;;;;;;;-145.06;100.00;60892.56;4919724;28;19912;-90
2023/10/01 04:52:10;;;;;;;;;;;;;;;-145.06;100.00;60892.56;4920133;28;19916;-89
2023/10/01 04:54:49;;;;;;;;;;;;;;;-145.06;100.00;60892.56;4906695;28;19920;-90
2023/10/01 04:57:36;;;;;;;;;;;;;;;-145.06;100.00;60892.56;4924136;28;20263;-88
2023/10/01 05:00:21;;;;;;;;;;;;;;;-145.06;100.00;60892.56;4913286;28;20374;-89
2023/10/01 05:03:06;;;;;;;;;;;;;;;-145.06;100.00;60892.56;4919233;28;19916;-88
2023/10/01 05:05:45;;;;;;;;;;;;;;;-145.06;100.00;60892.56;4909054;28;19916;-88
2023/10/01 05:08:24;;;;;;;;;;;;;;;-145.06;100.00;60892.56;4915767;28;19920;-90
2023/10/01 05:11:03;;;;;;;;;;;;;;;-145.06;100.00;60892.56;4924399;28;19912;-90
2023/10/01 05:13:42;;;;;;;;;;;;;;;-145.06;100.00;60892.56;4918788;28;19924;-89
2023/10/01 05:16:26;;;;;;;;;;;;;;;-145.06;100.00;60892.56;4919796;28;20242;-90
2023/10/01 05:19:23;;;;;;;;;;;;;;;;;;;;;
2023/10/01 05:22:02;;;;;;;;;;;;;;;-145.06;100.00;60892.56;4926764;28;20006;-89
2023/10/01 05:24:48;;;;;;;;;;;;;;;-145.06;100.00;60892.56;4917560;28;19924;-89
2023/10/01 05:27:28;;;;;;;;;;;;;;;-145.06;100.00;60892.56;4911687;28;19951;-89
2023/10/01 05:30:32;;;;;;;;;;;;;;;-145.06;100.00;60892.56;4925776;28;19920;-90
2023/10/01 05:33:06;;;;;;;;;;;;;;;-145.06;100.00;60892.56;4921873;28;19920;-90
2023/10/01 05:35:50;;;;;;;;;;;;;;;-145.06;100.00;60892.56;4916087;28;19916;-90
2023/10/01 05:38:34;;;;;;;;;;;;;;;-145.06;100.00;60892.56;4913328;28;19912;-90
2023/10/01 05:41:16;;;;;;;;;;;;;;;-145.06;100.00;60892.56;4918991;28;19920;-91
2023/10/01 05:44:04;;;;;;;;;;;;;;;-145.06;100.00;60892.56;4914245;28;19919;-89
2023/10/01 05:46:43;;;;;;;;;;;;;;;-145.06;100.00;60892.56;4921238;28;19916;-89
2023/10/01 05:49:22;;;;;;;;;;;;;;;-145.06;100.00;60892.56;4927247;28;19920;-89
2023/10/01 05:52:02;;;;;;;;;;;;;;;-145.06;100.00;60892.56;4923182;28;19920;-91
2023/10/01 05:54:52;;;;;;;;;;;;;;;-145.06;100.00;60892.56;4913400;28;19920;-88
2023/10/01 05:57:31;;;;;;;;;;;;;;;-145.06;100.00;60892.56;4916890;28;19916;-90
2023/10/01 06:00:17;;;;;;;;;;;;;;;-145.06;100.00;60892.56;4904572;28;19916;-90
2023/10/01 06:03:02;;;;;;;;;;;;;;;-145.06;100.00;60892.56;4905062;28;19920;-89
2023/10/01 06:08:32;;;;;;;;;;;;;;;-145.06;100.00;60892.56;4915843;28;19916;-89
2023/10/01 06:11:15;;;;;;;;;;;;;;;-145.06;100.00;60892.56;4909636;28;19991;-89
2023/10/01 06:13:56;;;;;;;;;;;;;;;-145.06;100.00;60892.56;4910318;28;19924;-88
2023/10/01 06:16:37;;;;;;;;;;;;;;;-145.06;100.00;60892.56;4910190;28;19920;-89
2023/10/01 06:19:16;;;;;;;;;;;;;;;-145.06;100.00;60892.56;4922519;27;19951;-88
2023/10/01 06:22:12;;;;;;;;;;;;;;;-145.06;100.00;60892.56;4915553;28;19916;-88
2023/10/01 06:24:51;;;;;;;;;;;;;;;-145.06;100.00;60892.56;4916310;28;19959;-88
2023/10/01 06:27:30;;;;;;;;;;;;;;;-145.06;100.00;60892.56;4915837;28;19912;-89
2023/10/01 06:30:11;;;;;;;;;;;;;;;-145.06;100.00;60892.56;4907494;28;19916;-89
2023/10/01 06:32:51;;;;;;;;;;;;;;;-145.06;100.00;60892.56;4916147;28;19920;-89
2023/10/01 06:35:31;;;;;;;;;;;;;;;-145.06;100.00;60892.56;4917506;28;19916;-90
2023/10/01 06:38:47;;;;;;;;;;;;;;;;;;;;;
2023/10/01 06:41:31;;;;;;;;;;;;;;;-145.06;100.00;60892.56;4913099;28;19924;-89
2023/10/01 06:44:14;;;;;;;;;;;;;;;-145.06;100.00;60892.56;4916631;28;19976;-89
2023/10/01 06:46:53;;;;;;;;;;;;;;;-145.06;100.00;60892.56;4914458;28;19920;-89
2023/10/01 06:49:32;;;;;;;;;;;;;;;-145.06;100.00;60892.56;4914204;28;19920;-90
2023/10/01 06:52:12;;;;;;;;;;;;;;;-145.06;100.00;60892.56;4923422;28;19935;-89
2023/10/01 06:54:52;;;;;;;;;;;;;;;-145.06;100.00;60892.56;4906596;28;19951;-90
2023/10/01 06:57:33;;;;;;;;;;;;;;;-145.06;100.00;60892.56;4923966;28;19916;-90
2023/10/01 07:00:21;;;;;;;;;;;;;;;-145.06;100.00;60892.56;4916253;28;20012;-89
2023/10/01 07:03:17;;;;;;;;;;;;;;;-145.06;100.00;60892.56;4905821;28;20243;-91
2023/10/01 07:06:01;;;;;;;;;;;;;;;-145.06;100.00;60892.56;4914419;28;20221;-90
2023/10/01 07:08:43;;;;;;;;;;;;;;;13.02;100.00;60892.56;4917980;28;19955;-89
2023/10/01 07:11:23;;;;;;;;;;;;;;;13.28;100.00;60892.56;4914517;28;20350;-90
2023/10/01 07:14:03;;;;;;;;;;;;;;;13.28;100.00;60892.56;4911432;28;20414;-90
2023/10/01 07:16:45;;;;;;;;;;;;;;;13.28;100.00;60892.56;4915720;28;20242;-89
2023/10/01 07:19:24;;;;;;;;;;;;;;;-145.06;100.00;60892.56;4917260;28;20533;-91
2023/10/01 07:22:06;;;;;;;;;;;;;;;-145.06;100.00;60892.56;4912671;28;19920;-92
2023/10/01 07:24:46;;;;;;;;;;;;;;;-145.06;100.00;60892.56;4909606;28;19916;-90
2023/10/01 07:27:25;;;;;;;;;;;;;;;-145.06;100.00;60892.56;4909580;28;19916;-89
2023/10/01 07:30:06;;;;;;;;;;;;;;;-145.06;100.00;60892.56;4916149;28;19915;-90
2023/10/01 07:32:46;;;;;;;;;;;;;;;-145.06;100.00;60892.56;4918561;28;19964;-90
2023/10/01 07:35:25;;;;;;;;;;;;;;;-145.06;100.00;60892.56;4913228;28;19916;-90
2023/10/01 07:38:03;;;;;;;;;;;;;;;-145.06;100.00;60892.56;4911100;28;19920;-89
2023/10/01 07:40:58;;;;;;;;;;;;;;;-145.06;100.00;60892.56;4915435;28;19916;-89
2023/10/01 07:43:37;;;;;;;;;;;;;;;-145.06;100.00;60892.56;4914186;28;19920;-90
2023/10/01 07:46:18;;;;;;;;;;;;;;;-145.06;100.00;60892.56;4907304;28;19916;-89
2023/10/01 07:49:00;;;;;;;;;;;;;;;14.30;100.00;60892.56;4913221;28;19925;-90
2023/10/01 07:51:39;;;;;;;;;;;;;;;14.41;100.00;60892.56;4917653;28;19920;-91
2023/10/01 07:54:22;;;;;;;;;;;;;;;14.53;100.00;60892.56;4921425;28;20366;-90
2023/10/01 07:57:01;;;;;;;;;;;;;;;-145.06;100.00;60892.56;4922483;28;19916;-91
2023/10/01 07:59:43;;;;;;;;;;;;;;;-145.06;100.00;60892.56;4924907;28;19916;-91
2023/10/01 08:02:22;;;;;;;;;;;;;;;-145.06;100.00;60892.56;4923195;28;19959;-91
2023/10/01 08:05:08;;;;;;;;;;;;;;;-145.06;100.00;60892.56;4925558;28;19912;-91
2023/10/01 08:07:50;;;;;;;;;;;;;;;-145.06;100.00;60892.56;4924415;28;19920;-91
2023/10/01 08:10:30;;;;;;;;;;;;;;;-145.06;100.00;60892.56;4908240;28;19912;-92
2023/10/01 08:13:20;;;;;;;;;;;;;;;-145.06;100.00;60892.56;4922550;28;19916;-90
2023/10/01 08:16:02;;;;;;;;;;;;;;;-145.06;100.00;60892.56;4908914;28;19917;-90
2023/10/01 08:18:42;;;;;;;;;;;;;;;-145.06;100.00;60892.56;4922357;28;19951;-91
2023/10/01 08:21:30;;;;;;;;;;;;;;;-145.06;100.00;60892.56;4923186;28;19916;-91
2023/10/01 08:24:09;;;;;;;;;;;;;;;-145.06;100.00;60892.56;4924014;28;19916;-92
2023/10/01 08:26:58;;;;;;;;;;;;;;;-145.06;100.00;60892.56;4926773;28;19947;-92
2023/10/01 08:32:43;;;;;;;;;;;;;;;-145.06;100.00;60892.56;4938678;28;20092;-92
2023/10/01 08:35:34;;;;;;;;;;;;;;;-145.06;100.00;60892.56;4926612;28;20262;-91
2023/10/01 08:38:15;;;;;;;;;;;;;;;-145.06;100.00;60892.56;4925426;28;19916;-91
2023/10/01 08:40:59;;;;;;;;;;;;;;;-145.06;100.00;60892.56;4927874;28;19912;-91
2023/10/01 08:44:09;;;;;;;;;;;;;;;-145.06;100.00;60892.56;4906929;28;19912;-91
2023/10/01 08:47:21;;;;;;;;;;;;;;;-145.06;100.00;60892.56;4908595;28;19920;-92
2023/10/01 08:53:10;;;;;;;;;;;;;;;-145.06;100.00;60892.56;4931593;28;19916;-91
2023/10/01 08:58:48;;;;;;;;;;;;;;;-145.06;100.00;60892.56;4930060;28;19912;-92
2023/10/01 09:01:32;;;;;;;;;;;;;;;-145.06;100.00;60892.56;4908039;28;19912;-91
2023/10/01 09:04:29;;;;;;;;;;;;;;;-145.06;100.00;60892.56;4924453;28;19951;-91
2023/10/01 09:07:10;;;;;;;;;;;;;;;-145.06;100.00;60892.56;4923059;28;19912;-90
2023/10/01 09:10:05;;;;;;;;;;;;;;;-145.06;100.00;60892.56;4924076;28;19912;-92
2023/10/01 09:12:47;;;;;;;;;;;;;;;-145.06;100.00;60892.56;4924303;28;19938;-93
2023/10/01 09:15:29;;;;;;;;;;;;;;;-145.06;100.00;60892.56;4924017;28;19912;-92
2023/10/01 09:18:10;;;;;;;;;;;;;;;187.52;100.00;60892.56;4923428;28;19912;-92
2023/10/01 09:21:10;;;;;;;;;;;;;;;-145.06;100.00;60892.56;4923921;28;19912;-91
2023/10/01 09:23:56;;;;;;;;;;;;;;;-145.06;100.00;60892.56;4923355;28;19912;-91
2023/10/01 09:26:39;;;;;;;;;;;;;;;-145.06;100.00;60892.56;4923676;28;19912;-92
2023/10/01 09:29:25;;;;;;;;;;;;;;;-145.06;100.00;60892.56;4924305;28;19920;-93
2023/10/01 09:32:07;;;;;;;;;;;;;;;-145.06;100.00;60892.56;4923707;28;19984;-91
2023/10/01 09:34:53;;;;;;;;;;;;;;;-145.06;100.00;60892.56;4923932;28;19912;-93
2023/10/01 09:37:42;;;;;;;;;;;;;;;-145.06;100.00;60892.56;4904053;28;19920;-93
2023/10/01 09:43:33;;;;;;;;;;;;;;;-145.06;100.00;60892.56;4920127;28;19912;-91
2023/10/01 09:46:14;;;;;;;;;;;;;;;-145.06;100.00;60892.56;4924280;28;19912;-92
2023/10/01 09:49:00;;;;;;;;;;;;;;;-145.06;100.00;60892.56;4923700;28;20267;-92
2023/10/01 09:51:46;;;;;;;;;;;;;;;-145.06;100.00;60892.56;4924416;28;19912;-91
2023/10/01 09:54:28;;;;;;;;;;;;;;;-145.06;100.00;60892.56;4923344;28;19916;-92
2023/10/01 09:57:08;;;;;;;;;;;;;;;-145.06;100.00;60892.56;4924313;28;19912;-91
2023/10/01 09:59:53;;;;;;;;;;;;;;;-145.06;100.00;60892.56;4923930;28;19912;-91
2023/10/01 10:02:51;;;;;;;;;;;;;;;-145.06;100.00;60892.56;4923284;28;19916;-91
2023/10/01 10:05:39;;;;;;;;;;;;;;;-145.06;100.00;60892.56;4915905;28;19960;-92
2023/10/01 10:08:26;;;;;;;;;;;;;;;-145.06;100.00;60892.56;4923144;28;19942;-92
2023/10/01 10:11:13;;;;;;;;;;;;;;;-145.06;100.00;60892.56;4923843;28;19912;-92
2023/10/01 10:14:33;;;;;;;;;;;;;;;-145.06;100.00;60892.56;4923432;28;19919;-92
2023/10/01 10:17:28;;;;;;;;;;;;;;;-145.06;100.00;60892.56;4923106;28;19912;-92
2023/10/01 10:23:19;;;;;;;;;;;;;;;-145.06;100.00;60892.56;4922503;28;20291;-92
2023/10/01 10:26:55;;;;;;;;;;;;;;;;;;;;;
2023/10/01 10:30:01;;;;;;;;;;;;;;;-145.06;100.00;60892.56;4927619;28;19916;-92
2023/10/01 10:32:44;;;;;;;;;;;;;;;-145.06;100.00;60892.56;4903682;28;19925;-92
2023/10/01 10:35:33;;;;;;;;;;;;;;;-145.06;100.00;60892.56;4914647;28;20290;-92
2023/10/01 10:38:32;;;;;;;;;;;;;;;41.86;100.00;60892.56;4923822;28;19912;-92
2023/10/01 10:41:30;;;;;;;;;;;;;;;-145.06;100.00;60892.56;4923441;28;19951;-92
2023/10/01 10:44:18;;;;;;;;;;;;;;;-145.06;100.00;60892.56;4923484;28;19951;-91
2023/10/01 10:47:32;;;;;;;;;;;;;;;26.27;100.00;60892.56;4923370;28;19944;-92
2023/10/01 10:50:44;;;;;;;;;;;;;;;;;;;;;
2023/10/01 10:53:46;;;;;;;;;;;;;;;-145.06;100.00;60892.56;4930673;28;19916;-93
2023/10/01 10:56:35;;;;;;;;;;;;;;;-145.06;100.00;60892.56;4923287;28;19912;-91
2023/10/01 11:02:42;;;;;;;;;;;;;;;23.35;100.00;60892.56;4902506;28;19912;-91
2023/10/01 11:05:33;;;;;;;;;;;;;;;-145.06;100.00;60892.56;4912851;28;19913;-92
2023/10/01 11:08:35;;;;;;;;;;;;;;;-145.06;100.00;60892.56;4902659;28;19916;-92
2023/10/01 11:11:20;;;;;;;;;;;;;;;-145.06;100.00;60892.56;4918723;28;19912;-92
2023/10/01 11:14:03;;;;;;;;;;;;;;;-145.06;100.00;60892.56;4922791;28;19916;-91
2023/10/01 11:16:51;;;;;;;;;;;;;;;-145.06;100.00;60892.56;4923184;28;19939;-93
2023/10/01 11:19:35;;;;;;;;;;;;;;;-145.06;100.00;60892.56;4923001;28;20010;-91
2023/10/01 11:22:22;;;;;;;;;;;;;;;-145.06;100.00;60892.56;4922669;28;19912;-92
2023/10/01 11:25:12;;;;;;;;;;;;;;;-145.06;100.00;60892.56;4922609;28;20414;-91
2023/10/01 11:27:53;;;;;;;;;;;;;;;-145.06;100.00;60892.56;4922596;28;19979;-94
2023/10/01 11:30:44;;;;;;;;;;;;;;;-145.06;100.00;60892.56;4917903;28;19917;-91
2023/10/01 11:33:33;;;;;;;;;;;;;;;-145.06;100.00;60892.56;4923292;28;19917;-92
2023/10/01 11:36:14;;;;;;;;;;;;;;;-145.06;100.00;60892.56;4925520;28;19919;-91
2023/10/01 11:38:53;;;;;;;;;;;;;;;-145.06;100.00;60892.56;4925823;28;20354;-92
2023/10/01 11:41:42;;;;;;;;;;;;;;;-145.06;100.00;60892.56;4926268;28;19916;-94
2023/10/01 11:44:43;;;;;;;;;;;;;;;-145.06;100.00;60892.56;4926220;28;19912;-93
2023/10/01 11:47:31;;;;;;;;;;;;;;;-145.06;100.00;60892.56;4906012;28;19916;-92
2023/10/01 11:50:12;;;;;;;;;;;;;;;-145.06;100.00;60892.56;4906302;28;19916;-93
2023/10/01 11:53:04;;;;;;;;;;;;;;;-145.06;100.00;60892.56;4911119;28;19920;-93
2023/10/01 11:55:43;;;;;;;;;;;;;;;-145.06;100.00;60892.56;4914505;28;19912;-91
2023/10/01 11:58:26;;;;;;;;;;;;;;;-145.06;100.00;60892.56;4926081;28;19916;-92
2023/10/01 12:01:09;;;;;;;;;;;;;;;-145.06;100.00;60892.56;4924655;28;19951;-93
2023/10/01 12:03:58;;;;;;;;;;;;;;;-145.06;100.00;60892.56;4906318;28;20370;-92
2023/10/01 12:06:38;;;;;;;;;;;;;;;-145.06;100.00;60892.56;4920144;28;19913;-90
2023/10/01 12:09:20;;;;;;;;;;;;;;;25.85;100.00;60892.56;4930127;28;19912;-92
2023/10/01 12:12:03;;;;;;;;;;;;;;;25.92;100.00;60892.56;4925246;28;19912;-92
2023/10/01 12:15:32;;;;;;;;;;;;;;;26.03;100.00;60892.56;4925706;28;19943;-93
2023/10/01 12:17:57;;;;;;;;;;;;;;;-145.06;100.00;60892.56;4906509;28;19912;-91
2023/10/01 12:20:39;;;;;;;;;;;;;;;-145.06;100.00;60892.56;4920062;28;19917;-93
2023/10/01 12:23:22;;;;;;;;;;;;;;;-145.06;100.00;60892.56;4924986;28;19916;-91
2023/10/01 12:29:11;;;;;;;;;;;;;;;-145.06;100.00;60892.56;4932068;28;20369;-92
2023/10/01 12:31:46;;;;;;;;;;;;;;;-145.06;100.00;60892.56;4925130;28;20006;-93
2023/10/01 12:34:25;;;;;;;;;;;;;;;-145.06;100.00;60892.56;4924644;28;20246;-94
2023/10/01 12:37:40;;;;;;;;;;;;;;;-145.06;100.00;60892.56;4920685;28;19916;-92
2023/10/01 12:40:21;;;;;;;;;;;;;;;-145.06;100.00;60892.56;4922789;28;19916;-92
2023/10/01 12:43:03;;;;;;;;;;;;;;;-145.06;100.00;60892.56;4924047;28;20381;-92
2023/10/01 12:45:43;;;;;;;;;;;;;;;-145.06;100.00;60892.56;4924605;28;19920;-92
2023/10/01 12:48:25;;;;;;;;;;;;;;;-145.06;100.00;60892.56;4918176;28;19975;-91
2023/10/01 12:51:07;;;;;;;;;;;;;;;-145.06;100.00;60892.56;4923637;28;19912;-92
2023/10/01 12:53:49;;;;;;;;;;;;;;;-145.06;100.00;60892.56;4923946;28;19916;-93
2023/10/01 12:59:36;;;;;;;;;;;;;;;-145.06;100.00;60892.56;4931401;28;19912;-92
2023/10/01 13:05:27;;;;;;;;;;;;;;;-145.06;100.00;60892.56;4931143;28;20191;-93
2023/10/01 13:08:07;;;;;;;;;;;;;;;-145.06;100.00;60892.56;4923805;28;19912;-91
2023/10/01 13:10:50;;;;;;;;;;;;;;;-145.06;100.00;60892.56;4923841;28;19912;-94
2023/10/01 13:13:30;;;;;;;;;;;;;;;-145.06;100.00;60892.56;4923434;28;19917;-93
2023/10/01 13:16:16;;;;;;;;;;;;;;;-145.06;100.00;60892.56;4927667;28;19912;-93
2023/10/01 13:18:55;;;;;;;;;;;;;;;-145.06;100.00;60892.56;4917747;28;20003;-92
2023/10/01 13:21:41;;;;;;;;;;;;;;;-145.06;100.00;60892.56;4903309;28;19952;-92
2023/10/01 13:24:20;;;;;;;;;;;;;;;-145.06;100.00;60892.56;4950735;27;19911;-92
2023/10/01 13:27:10;;;;;;;;;;;;;;;-145.06;100.00;60892.56;4923420;28;19912;-93
2023/10/01 13:29:49;;;;;;;;;;;;;;;-145.06;100.00;60892.56;4923384;28;19912;-93
2023/10/01 13:32:32;;;;;;;;;;;;;;;-145.06;100.00;60892.56;4917563;28;19921;-92
2023/10/01 13:35:32;;;;;;;;;;;;;;;-145.06;100.00;60892.56;4923457;28;19912;-93
2023/10/01 13:38:26;;;;;;;;;;;;;;;-145.06;100.00;60892.56;4924027;28;19912;-92
2023/10/01 14:10:43;;;;;;;;;;;;;;;-145.06;100.00;60892.56;4928620;28;19912;-92
2023/10/01 14:16:33;;;;;;;;;;;;;;;-145.06;100.00;60892.56;4902063;28;19912;-92
2023/10/01 14:19:15;;;;;;;;;;;;;;;-145.06;100.00;60892.56;4913302;28;19916;-92
2023/10/01 14:21:54;;;;;;;;;;;;;;;-145.06;100.00;60892.56;4922504;28;19912;-93
2023/10/01 14:24:42;;;;;;;;;;;;;;;-145.06;100.00;60892.56;4922356;28;19912;-92
2023/10/01 14:27:24;;;;;;;;;;;;;;;-145.06;100.00;60892.56;4909188;28;19913;-92
2023/10/01 14:33:23;;;;;;;;;;;;;;;-145.06;100.00;60892.56;4929665;28;19920;-93
2023/10/01 14:36:03;;;;;;;;;;;;;;;-145.06;100.00;60892.56;4922749;28;19912;-94
2023/10/01 14:38:42;;;;;;;;;;;;;;;-145.06;100.00;60892.56;4909185;28;20015;-92
2023/10/01 14:41:21;;;;;;;;;;;;;;;-145.06;100.00;60892.56;4920163;28;19951;-92
2023/10/01 14:44:01;;;;;;;;;;;;;;;-145.06;100.00;60892.56;4922483;28;19916;-93
2023/10/01 14:46:49;;;;;;;;;;;;;;;-145.06;100.00;60892.56;4922485;28;19944;-91
2023/10/01 14:49:29;;;;;;;;;;;;;;;-145.06;100.00;60892.56;4919428;28;19912;-92
2023/10/01 14:52:08;;;;;;;;;;;;;;;-145.06;100.00;60892.56;4902963;28;20271;-93
2023/10/01 14:54:47;;;;;;;;;;;;;;;-145.06;100.00;60892.56;4908861;28;19912;-93
2023/10/01 14:57:26;;;;;;;;;;;;;;;-145.06;100.00;60892.56;4922083;28;19912;-92
2023/10/01 15:00:07;;;;;;;;;;;;;;;-145.06;100.00;60892.56;4921354;28;19912;-92
2023/10/01 15:02:54;;;;;;;;;;;;;;;-145.06;100.00;60892.56;4913403;28;19916;-93
2023/10/01 15:05:33;;;;;;;;;;;;;;;-145.06;100.00;60892.56;4924294;28;19916;-92
2023/10/01 15:08:12;;;;;;;;;;;;;;;-145.06;100.00;60892.56;4923218;28;19912;-92
2023/10/01 15:10:51;;;;;;;;;;;;;;;-145.06;100.00;60892.56;4925940;28;20270;-92
2023/10/01 15:13:36;;;;;;;;;;;;;;;-145.06;100.00;60892.56;4925363;28;19951;-93